createdAt,value
2024-04-03T00:01:34.475Z,9.00
2024-04-03T00:04:01.016Z,9.00
2024-04-03T00:06:27.548Z,9.00
2024-04-03T00:08:53.977Z,9.00
2024-04-03T00:11:20.746Z,9.00
2024-04-03T00:13:47.263Z,9.00
2024-04-03T00:16:13.756Z,8.92
2024-04-03T00:18:40.339Z,8.90
2024-04-03T00:21:06.825Z,8.90
2024-04-03T00:23:33.385Z,8.90
2024-04-03T00:26:01.971Z,8.90
2024-04-03T00:28:30.626Z,8.90
2024-04-03T00:31:01.108Z,8.88
2024-04-03T00:33:27.754Z,8.80
2024-04-03T00:36:04.311Z,8.80
2024-04-03T00:38:30.778Z,8.80
2024-04-03T00:41:02.019Z,8.80
2024-04-03T00:43:30.256Z,8.74
2024-04-03T00:46:00.770Z,8.70
2024-04-03T00:48:30.337Z,8.70
2024-04-03T00:50:57.497Z,8.70
2024-04-03T00:53:25.305Z,8.70
2024-04-03T00:55:51.965Z,8.66
2024-04-03T00:58:18.515Z,8.62
2024-04-03T01:00:45.091Z,8.60
2024-04-03T01:03:11.915Z,8.60
2024-04-03T01:05:38.492Z,8.60
2024-04-03T01:08:05.472Z,8.60
2024-04-03T01:10:32.375Z,8.58
2024-04-03T01:13:02.547Z,8.50
2024-04-03T01:15:32.348Z,8.50
2024-04-03T01:17:58.827Z,8.50
2024-04-03T01:20:25.409Z,8.48
2024-04-03T01:22:52.601Z,8.40
2024-04-03T01:25:19.318Z,8.40
2024-04-03T01:27:45.813Z,8.40
2024-04-03T01:30:12.462Z,8.40
2024-04-03T01:32:45.405Z,8.30
2024-04-03T01:35:18.975Z,8.30
2024-04-03T01:37:45.561Z,8.30
2024-04-03T01:40:11.974Z,8.30
2024-04-03T01:42:38.778Z,8.24
2024-04-03T01:45:05.670Z,8.20
2024-04-03T01:47:32.225Z,8.20
2024-04-03T01:50:00.656Z,8.20
2024-04-03T01:52:27.069Z,8.20
2024-04-03T01:54:53.500Z,8.20
2024-04-03T01:57:19.956Z,8.20
2024-04-03T01:59:46.547Z,8.20
2024-04-03T02:02:13.030Z,8.20
2024-04-03T02:04:39.557Z,8.20
2024-04-03T02:07:06.043Z,8.20
2024-04-03T02:09:36.054Z,8.20
2024-04-03T02:12:04.479Z,8.20
2024-04-03T02:14:31.940Z,8.20
2024-04-03T02:16:59.152Z,8.20
2024-04-03T02:19:26.165Z,8.18
2024-04-03T02:21:53.359Z,8.14
2024-04-03T02:24:20.949Z,8.10
2024-04-03T02:26:47.926Z,8.10
2024-04-03T02:29:14.958Z,8.10
2024-04-03T02:31:41.784Z,8.06
2024-04-03T02:34:09.088Z,8.00
2024-04-03T02:36:35.559Z,8.00
2024-04-03T02:39:02.384Z,8.00
2024-04-03T02:41:28.882Z,8.00
2024-04-03T02:43:55.461Z,8.00
2024-04-03T02:46:21.933Z,7.90
2024-04-03T02:48:48.438Z,7.90
2024-04-03T02:51:15.828Z,7.90
2024-04-03T02:53:42.548Z,7.90
2024-04-03T02:56:10.185Z,7.90
2024-04-03T02:58:37.370Z,7.84
2024-04-03T03:01:07.570Z,7.80
2024-04-03T03:03:34.497Z,7.80
2024-04-03T03:06:05.342Z,7.80
2024-04-03T03:08:33.890Z,7.80
2024-04-03T03:11:02.986Z,7.80
2024-04-03T03:13:30.154Z,7.80
2024-04-03T03:15:59.430Z,7.74
2024-04-03T03:18:31.568Z,7.70
2024-04-03T03:20:58.262Z,7.70
2024-04-03T03:23:24.906Z,7.70
2024-04-03T03:25:55.615Z,7.70
2024-04-03T03:28:22.675Z,7.70
2024-04-03T03:30:53.948Z,7.70
2024-04-03T03:33:20.526Z,7.68
2024-04-03T03:35:58.223Z,7.60
2024-04-03T03:38:25.639Z,7.62
2024-04-03T03:40:55.378Z,7.60
2024-04-03T03:43:22.188Z,7.60
2024-04-03T03:45:51.469Z,7.60
2024-04-03T03:48:21.993Z,7.60
2024-04-03T03:51:07.018Z,7.60
2024-04-03T03:53:33.892Z,7.60
2024-04-03T03:56:09.809Z,7.60
2024-04-03T03:58:36.388Z,7.60
2024-04-03T04:01:06.229Z,7.60
2024-04-03T04:03:32.915Z,7.52
2024-04-03T04:06:00.294Z,7.50
2024-04-03T04:08:27.014Z,7.50
2024-04-03T04:10:57.543Z,7.50
2024-04-03T04:13:24.074Z,7.40
2024-04-03T04:15:51.326Z,7.40
2024-04-03T04:18:17.964Z,7.40
2024-04-03T04:20:44.600Z,7.40
2024-04-03T04:23:11.080Z,7.40
2024-04-03T04:25:37.589Z,7.38
2024-04-03T04:28:04.743Z,7.30
2024-04-03T04:30:31.243Z,7.30
2024-04-03T04:32:57.718Z,7.30
2024-04-03T04:35:24.156Z,7.30
2024-04-03T04:37:50.687Z,7.30
2024-04-03T04:40:18.966Z,7.30
2024-04-03T04:42:46.525Z,7.30
2024-04-03T04:45:13.696Z,7.30
2024-04-03T04:47:40.190Z,7.30
2024-04-03T04:50:10.596Z,7.30
2024-04-03T04:52:37.122Z,7.30
2024-04-03T04:55:04.169Z,7.30
2024-04-03T04:57:30.853Z,7.30
2024-04-03T04:59:57.576Z,7.30
2024-04-03T05:02:24.018Z,7.30
2024-04-03T05:04:51.074Z,7.30
2024-04-03T05:07:17.685Z,7.32
2024-04-03T05:09:48.988Z,7.38
2024-04-03T05:12:15.761Z,7.40
2024-04-03T05:14:42.219Z,7.40
2024-04-03T05:17:10.207Z,7.40
2024-04-03T05:19:36.858Z,7.40
2024-04-03T05:22:06.178Z,7.40
2024-04-03T05:24:33.088Z,7.50
2024-04-03T05:26:59.581Z,7.42
2024-04-03T05:29:26.089Z,7.40
2024-04-03T05:31:52.600Z,7.50
2024-04-03T05:34:19.425Z,7.52
2024-04-03T05:36:46.080Z,7.60
2024-04-03T05:39:12.517Z,7.70
2024-04-03T05:41:39.048Z,7.80
2024-04-03T05:44:06.077Z,7.90
2024-04-03T05:46:32.626Z,8.00
2024-04-03T05:48:59.138Z,8.10
2024-04-03T05:51:25.596Z,8.20
2024-04-03T05:53:52.034Z,8.30
2024-04-03T05:56:18.539Z,8.40
2024-04-03T05:58:45.612Z,8.60
2024-04-03T06:01:12.173Z,8.70
2024-04-03T06:03:38.716Z,8.82
2024-04-03T06:06:05.607Z,9.00
2024-04-03T06:08:32.115Z,9.10
2024-04-03T06:10:58.622Z,9.30
2024-04-03T06:13:25.232Z,9.50
2024-04-03T06:15:52.059Z,9.78
2024-04-03T06:18:18.535Z,9.90
2024-04-03T06:20:45.137Z,10.00
2024-04-03T06:23:13.078Z,10.10
2024-04-03T06:25:39.648Z,10.10
2024-04-03T06:28:06.498Z,10.18
2024-04-03T06:30:33.577Z,10.20
2024-04-03T06:33:00.195Z,10.20
2024-04-03T06:35:26.613Z,10.30
2024-04-03T06:37:53.122Z,10.40
2024-04-03T06:40:20.185Z,10.50
2024-04-03T06:42:47.003Z,10.70
2024-04-03T06:45:13.560Z,10.80
2024-04-03T06:47:40.119Z,11.00
2024-04-03T06:50:06.957Z,11.20
2024-04-03T06:52:33.607Z,11.36
2024-04-03T06:55:00.127Z,11.50
2024-04-03T06:57:26.663Z,11.62
2024-04-03T06:59:53.190Z,11.80
2024-04-03T07:02:19.665Z,11.90
2024-04-03T07:04:46.169Z,12.02
2024-04-03T07:07:12.683Z,12.10
2024-04-03T07:09:39.182Z,12.20
2024-04-03T07:12:06.342Z,12.30
2024-04-03T07:14:33.381Z,12.40
2024-04-03T07:16:59.918Z,12.50
2024-04-03T07:19:26.535Z,12.50
2024-04-03T07:21:54.597Z,12.60
2024-04-03T07:24:21.158Z,12.60
2024-04-03T07:26:48.981Z,12.70
2024-04-03T07:29:15.530Z,12.70
2024-04-03T07:31:45.014Z,12.70
2024-04-03T07:34:12.452Z,12.80
2024-04-03T07:36:39.531Z,12.80
2024-04-03T07:39:06.161Z,12.82
2024-04-03T07:41:34.329Z,12.90
2024-04-03T07:44:01.026Z,12.90
2024-04-03T07:46:28.788Z,13.00
2024-04-03T07:48:55.402Z,13.00
2024-04-03T07:51:22.107Z,13.00
2024-04-03T07:53:48.632Z,13.00
2024-04-03T07:56:15.373Z,13.00
2024-04-03T07:58:42.629Z,13.00
2024-04-03T08:01:09.784Z,12.96
2024-04-03T08:03:38.131Z,13.00
2024-04-03T08:06:06.974Z,13.00
2024-04-03T08:08:34.135Z,13.00
2024-04-03T08:11:02.643Z,13.10
2024-04-03T08:13:29.696Z,13.10
2024-04-03T08:16:07.179Z,13.10
2024-04-03T08:18:34.232Z,13.10
2024-04-03T08:21:07.715Z,13.10
2024-04-03T08:23:34.904Z,13.10
2024-04-03T08:26:10.454Z,13.10
2024-04-03T08:28:40.230Z,13.10
2024-04-03T08:31:14.414Z,13.10
2024-04-03T08:33:43.133Z,13.20
2024-04-03T08:36:11.726Z,13.20
2024-04-03T08:38:38.859Z,13.20
2024-04-03T08:41:06.495Z,13.20
2024-04-03T08:43:36.990Z,13.20
2024-04-03T08:46:03.905Z,13.20
2024-04-03T08:48:30.966Z,13.28
2024-04-03T08:50:57.927Z,13.30
2024-04-03T08:53:25.788Z,13.36
2024-04-03T08:55:54.903Z,13.40
2024-04-03T08:58:22.666Z,13.48
2024-04-03T09:00:50.966Z,13.50
2024-04-03T09:03:20.064Z,13.60
2024-04-03T09:05:50.656Z,13.64
2024-04-03T09:08:17.092Z,13.70
2024-04-03T09:11:02.514Z,13.80
2024-04-03T09:13:28.974Z,13.90
2024-04-03T09:15:56.080Z,14.00
2024-04-03T09:18:22.899Z,14.02
2024-04-03T09:20:53.847Z,14.10
2024-04-03T09:23:20.540Z,14.20
2024-04-03T09:25:47.527Z,14.30
2024-04-03T09:28:14.662Z,14.40
2024-04-03T09:30:50.512Z,14.48
2024-04-03T09:33:20.054Z,14.58
2024-04-03T09:35:46.648Z,14.70
2024-04-03T09:38:15.016Z,14.80
2024-04-03T09:40:42.808Z,14.90
2024-04-03T09:43:13.364Z,15.00
2024-04-03T09:45:42.263Z,15.10
2024-04-03T09:48:10.807Z,15.12
2024-04-03T09:50:41.868Z,15.20
2024-04-03T09:53:12.953Z,15.30
2024-04-03T09:55:39.903Z,15.50
2024-04-03T09:58:15.080Z,15.52
2024-04-03T10:00:51.363Z,15.70
2024-04-03T10:03:28.294Z,15.84
2024-04-03T10:06:18.327Z,16.00
2024-04-03T10:08:46.701Z,16.10
2024-04-03T10:11:16.748Z,16.16
2024-04-03T10:13:45.612Z,16.22
2024-04-03T10:16:14.782Z,16.30
2024-04-03T10:18:46.311Z,16.40
2024-04-03T10:21:14.228Z,16.50
2024-04-03T10:23:45.315Z,16.60
2024-04-03T10:26:13.933Z,16.80
2024-04-03T10:28:40.916Z,16.90
2024-04-03T10:31:12.159Z,17.10
2024-04-03T10:33:38.661Z,17.28
2024-04-03T10:36:05.876Z,17.30
2024-04-03T10:38:35.846Z,17.30
2024-04-03T10:41:03.129Z,17.30
2024-04-03T10:43:29.748Z,17.22
2024-04-03T10:45:56.272Z,17.06
2024-04-03T10:48:24.652Z,16.90
2024-04-03T10:50:52.076Z,16.90
2024-04-03T10:53:18.694Z,16.70
2024-04-03T10:55:48.357Z,16.60
2024-04-03T10:58:14.889Z,16.80
2024-04-03T11:00:44.895Z,17.08
2024-04-03T11:03:12.395Z,17.22
2024-04-03T11:05:39.751Z,17.30
2024-04-03T11:08:10.914Z,17.40
2024-04-03T11:10:38.709Z,17.50
2024-04-03T11:13:10.370Z,17.60
2024-04-03T11:15:38.808Z,17.46
2024-04-03T11:18:05.786Z,17.30
2024-04-03T11:20:37.512Z,17.32
2024-04-03T11:23:06.771Z,17.30
2024-04-03T11:25:33.590Z,17.28
2024-04-03T11:28:01.892Z,17.20
2024-04-03T11:30:29.075Z,17.20
2024-04-03T11:32:57.978Z,17.26
2024-04-03T11:35:25.458Z,17.20
2024-04-03T11:37:52.576Z,17.28
2024-04-03T11:40:19.235Z,17.20
2024-04-03T11:42:45.858Z,17.18
2024-04-03T11:45:12.418Z,17.30
2024-04-03T11:47:38.926Z,17.20
2024-04-03T11:50:07.239Z,17.32
2024-04-03T11:52:34.114Z,17.50
2024-04-03T11:55:00.636Z,17.60
2024-04-03T11:57:27.672Z,17.70
2024-04-03T11:59:54.214Z,17.64
2024-04-03T12:02:20.704Z,17.50
2024-04-03T12:04:47.667Z,17.40
2024-04-03T12:07:14.711Z,17.40
2024-04-03T12:09:43.532Z,17.30
2024-04-03T12:12:10.718Z,17.40
2024-04-03T12:14:37.675Z,17.30
2024-04-03T12:17:05.560Z,17.36
2024-04-03T12:19:41.163Z,17.60
2024-04-03T12:22:07.715Z,17.70
2024-04-03T12:24:34.900Z,17.60
2024-04-03T12:27:01.525Z,17.50
2024-04-03T12:29:28.385Z,17.48
2024-04-03T12:31:55.334Z,17.50
2024-04-03T12:34:21.762Z,17.60
2024-04-03T12:37:05.209Z,17.70
2024-04-03T12:39:34.912Z,17.88
2024-04-03T12:42:01.416Z,17.90
2024-04-03T12:44:28.292Z,17.90
2024-04-03T12:46:54.718Z,18.00
2024-04-03T12:49:24.915Z,18.00
2024-04-03T12:51:53.476Z,17.88
2024-04-03T12:54:20.345Z,17.88
2024-04-03T12:56:47.117Z,17.80
2024-04-03T12:59:14.168Z,17.90
2024-04-03T13:01:40.667Z,17.80
2024-04-03T13:04:12.386Z,17.76
2024-04-03T13:06:39.736Z,17.80
2024-04-03T13:09:06.409Z,17.94
2024-04-03T13:11:33.490Z,18.10
2024-04-03T13:13:59.966Z,18.20
2024-04-03T13:16:26.655Z,18.10
2024-04-03T13:18:53.166Z,18.10
2024-04-03T13:21:20.929Z,18.14
2024-04-03T13:23:47.467Z,18.30
2024-04-03T13:26:15.126Z,18.40
2024-04-03T13:28:41.847Z,18.40
2024-04-03T13:31:08.787Z,18.40
2024-04-03T13:33:44.036Z,18.44
2024-04-03T13:36:15.115Z,18.40
2024-04-03T13:38:42.404Z,18.42
2024-04-03T13:41:09.989Z,18.50
2024-04-03T13:43:36.622Z,18.40
2024-04-03T13:46:03.571Z,18.50
2024-04-03T13:48:32.734Z,18.50
2024-04-03T13:51:00.377Z,18.40
2024-04-03T13:53:27.515Z,18.30
2024-04-03T13:56:01.749Z,18.10
2024-04-03T13:58:28.376Z,18.00
2024-04-03T14:01:04.731Z,18.02
2024-04-03T14:03:35.743Z,17.90
2024-04-03T14:06:06.576Z,17.80
2024-04-03T14:08:36.283Z,17.60
2024-04-03T14:11:03.001Z,17.30
2024-04-03T14:13:29.473Z,17.20
2024-04-03T14:15:55.939Z,17.00
2024-04-03T14:18:23.964Z,16.90
2024-04-03T14:20:50.519Z,16.70
2024-04-03T14:23:17.114Z,16.60
2024-04-03T14:25:44.060Z,16.50
2024-04-03T14:28:11.552Z,16.50
2024-04-03T14:30:42.812Z,16.40
2024-04-03T14:33:09.434Z,16.30
2024-04-03T14:35:36.250Z,16.30
2024-04-03T14:38:06.032Z,16.20
2024-04-03T14:40:32.912Z,16.10
2024-04-03T14:43:06.519Z,16.00
2024-04-03T14:45:33.593Z,15.90
2024-04-03T14:48:00.134Z,15.90
2024-04-03T14:50:26.685Z,15.78
2024-04-03T14:52:54.976Z,15.60
2024-04-03T14:55:21.508Z,15.50
2024-04-03T14:57:49.069Z,15.40
2024-04-03T15:00:15.624Z,15.30
2024-04-03T15:02:42.086Z,15.30
2024-04-03T15:05:10.058Z,15.30
2024-04-03T15:07:36.743Z,15.28
2024-04-03T15:10:03.632Z,15.24
2024-04-03T15:12:30.145Z,15.28
2024-04-03T15:14:56.980Z,15.20
2024-04-03T15:17:26.358Z,15.12
2024-04-03T15:19:54.019Z,15.00
2024-04-03T15:22:22.026Z,15.00
2024-04-03T15:24:49.544Z,15.00
2024-04-03T15:27:19.722Z,15.00
2024-04-03T15:29:46.403Z,15.00
2024-04-03T15:32:13.630Z,14.90
2024-04-03T15:34:46.349Z,14.90
2024-04-03T15:37:14.094Z,15.00
2024-04-03T15:39:41.277Z,14.90
2024-04-03T15:42:08.113Z,14.90
2024-04-03T15:44:35.440Z,14.72
2024-04-03T15:47:04.838Z,14.70
2024-04-03T15:49:32.032Z,14.60
2024-04-03T15:51:58.710Z,14.50
2024-04-03T15:54:25.885Z,14.42
2024-04-03T15:56:54.080Z,14.34
2024-04-03T15:59:23.963Z,14.20
2024-04-03T16:01:52.086Z,14.10
2024-04-03T16:04:18.749Z,14.10
2024-04-03T16:06:46.245Z,14.10
2024-04-03T16:09:16.699Z,14.00
2024-04-03T16:11:48.176Z,14.00
2024-04-03T16:14:16.109Z,13.90
2024-04-03T16:16:43.309Z,13.90
2024-04-03T16:19:09.882Z,13.80
2024-04-03T16:21:36.734Z,13.80
2024-04-03T16:24:03.569Z,13.70
2024-04-03T16:26:30.105Z,13.70
2024-04-03T16:28:56.563Z,13.70
2024-04-03T16:31:23.744Z,13.70
2024-04-03T16:33:50.320Z,13.70
2024-04-03T16:36:16.908Z,13.60
2024-04-03T16:38:43.487Z,13.60
2024-04-03T16:41:10.035Z,13.50
2024-04-03T16:43:43.548Z,13.48
2024-04-03T16:46:11.281Z,13.40
2024-04-03T16:48:37.886Z,13.30
2024-04-03T16:51:04.893Z,13.30
2024-04-03T16:53:31.416Z,13.30
2024-04-03T16:55:58.619Z,13.20
2024-04-03T16:58:25.706Z,13.20
2024-04-03T17:01:09.236Z,13.10
2024-04-03T17:03:43.821Z,13.10
2024-04-03T17:06:12.762Z,13.10
2024-04-03T17:08:39.521Z,13.04
2024-04-03T17:11:09.397Z,13.00
2024-04-03T17:13:35.941Z,12.90
2024-04-03T17:16:02.731Z,12.90
2024-04-03T17:18:29.217Z,12.82
2024-04-03T17:20:55.816Z,12.80
2024-04-03T17:23:22.301Z,12.70
2024-04-03T17:25:48.929Z,12.70
2024-04-03T17:28:15.471Z,12.64
2024-04-03T17:30:42.046Z,12.60
2024-04-03T17:33:08.636Z,12.60
2024-04-03T17:35:35.220Z,12.50
2024-04-03T17:38:03.576Z,12.48
2024-04-03T17:40:31.597Z,12.40
2024-04-03T17:42:58.264Z,12.30
2024-04-03T17:45:24.931Z,12.20
2024-04-03T17:47:51.451Z,12.20
2024-04-03T17:50:18.230Z,12.20
2024-04-03T17:52:45.123Z,12.10
2024-04-03T17:55:11.742Z,12.10
2024-04-03T17:57:38.982Z,12.10
2024-04-03T18:00:06.577Z,12.00
2024-04-03T18:02:40.088Z,11.90
2024-04-03T18:05:07.043Z,11.90
2024-04-03T18:07:33.825Z,11.90
2024-04-03T18:10:01.025Z,11.80
2024-04-03T18:12:27.620Z,11.80
2024-04-03T18:14:54.469Z,11.80
2024-04-03T18:17:21.800Z,11.80
2024-04-03T18:19:49.343Z,11.80
2024-04-03T18:22:18.917Z,11.80
2024-04-03T18:24:47.482Z,11.70
2024-04-03T18:27:14.249Z,11.74
2024-04-03T18:29:45.909Z,11.70
2024-04-03T18:32:13.142Z,11.70
2024-04-03T18:34:43.687Z,11.70
2024-04-03T18:37:10.107Z,11.60
2024-04-03T18:39:36.748Z,11.60
2024-04-03T18:42:04.149Z,11.60
2024-04-03T18:44:30.697Z,11.60
2024-04-03T18:46:57.181Z,11.60
2024-04-03T18:49:24.945Z,11.60
2024-04-03T18:51:51.941Z,11.60
2024-04-03T18:54:18.626Z,11.60
2024-04-03T18:56:45.879Z,11.60
2024-04-03T18:59:14.163Z,11.60
2024-04-03T19:01:42.614Z,11.60
2024-04-03T19:04:11.538Z,11.60
2024-04-03T19:06:38.131Z,11.60
2024-04-03T19:09:04.701Z,11.60
2024-04-03T19:11:32.762Z,11.60
2024-04-03T19:13:59.487Z,11.60
2024-04-03T19:16:26.100Z,11.60
2024-04-03T19:18:52.763Z,11.50
2024-04-03T19:21:19.206Z,11.50
2024-04-03T19:23:45.876Z,11.50
2024-04-03T19:26:12.409Z,11.50
2024-04-03T19:28:39.368Z,11.50
2024-04-03T19:31:06.490Z,11.40
2024-04-03T19:33:36.559Z,11.40
2024-04-03T19:36:06.170Z,11.40
2024-04-03T19:38:36.217Z,11.40
2024-04-03T19:41:06.425Z,11.30
2024-04-03T19:43:33.238Z,11.30
2024-04-03T19:46:00.324Z,11.30
2024-04-03T19:48:27.167Z,11.30
2024-04-03T19:50:53.981Z,11.30
2024-04-03T19:53:20.686Z,11.30
2024-04-03T19:55:47.970Z,11.30
2024-04-03T19:58:14.511Z,11.30
2024-04-03T20:00:44.102Z,11.30
2024-04-03T20:03:11.200Z,11.30
2024-04-03T20:05:40.591Z,11.30
2024-04-03T20:08:10.995Z,11.38
2024-04-03T20:10:47.141Z,11.30
2024-04-03T20:13:17.099Z,11.30
2024-04-03T20:15:46.879Z,11.30
2024-04-03T20:18:13.677Z,11.30
2024-04-03T20:20:45.725Z,11.30
2024-04-03T20:23:13.433Z,11.30
2024-04-03T20:25:46.262Z,11.30
2024-04-03T20:28:14.604Z,11.38
2024-04-03T20:30:42.998Z,11.30
2024-04-03T20:33:11.056Z,11.32
2024-04-03T20:35:47.131Z,11.40
2024-04-03T20:38:14.094Z,11.40
2024-04-03T20:40:42.513Z,11.50
2024-04-03T20:43:09.058Z,11.52
2024-04-03T20:45:36.790Z,11.60
2024-04-03T20:48:04.292Z,11.60
2024-04-03T20:50:30.774Z,11.60
2024-04-03T20:52:57.305Z,11.60
2024-04-03T20:55:26.786Z,11.60
2024-04-03T20:57:54.705Z,11.62
2024-04-03T21:00:21.346Z,11.60
2024-04-03T21:02:47.889Z,11.66
2024-04-03T21:05:15.100Z,11.68
2024-04-03T21:07:43.048Z,11.64
2024-04-03T21:10:11.153Z,11.70
2024-04-03T21:12:40.754Z,11.70
2024-04-03T21:15:08.409Z,11.70
2024-04-03T21:17:36.014Z,11.70
2024-04-03T21:20:03.455Z,11.70
2024-04-03T21:22:30.032Z,11.70
2024-04-03T21:24:56.493Z,11.66
2024-04-03T21:27:23.100Z,11.60
2024-04-03T21:29:53.968Z,11.60
2024-04-03T21:32:20.761Z,11.50
2024-04-03T21:34:47.497Z,11.50
2024-04-03T21:37:15.649Z,11.50
2024-04-03T21:39:46.191Z,11.50
2024-04-03T21:42:13.244Z,11.50
2024-04-03T21:44:40.052Z,11.50
2024-04-03T21:47:06.647Z,11.42
2024-04-03T21:49:33.362Z,11.40
2024-04-03T21:51:59.822Z,11.40
2024-04-03T21:54:26.353Z,11.40
2024-04-03T21:56:52.809Z,11.30
2024-04-03T21:59:19.346Z,11.30
2024-04-03T22:01:45.852Z,11.30
2024-04-03T22:04:12.322Z,11.20
2024-04-03T22:06:38.751Z,11.20
2024-04-03T22:09:05.279Z,11.20
2024-04-03T22:11:31.819Z,11.20
2024-04-03T22:13:58.354Z,11.20
2024-04-03T22:16:24.812Z,11.20
2024-04-03T22:18:51.339Z,11.20
2024-04-03T22:21:17.974Z,11.20
2024-04-03T22:23:44.433Z,11.20
2024-04-03T22:26:10.904Z,11.20
2024-04-03T22:28:37.386Z,11.20
2024-04-03T22:31:04.216Z,11.20
2024-04-03T22:33:30.733Z,11.20
2024-04-03T22:35:57.388Z,11.30
2024-04-03T22:38:24.048Z,11.30
2024-04-03T22:40:50.548Z,11.30
2024-04-03T22:43:17.171Z,11.40
2024-04-03T22:45:43.809Z,11.40
2024-04-03T22:48:10.308Z,11.40
2024-04-03T22:50:36.843Z,11.50
2024-04-03T22:53:04.460Z,11.50
2024-04-03T22:55:30.922Z,11.50
2024-04-03T22:57:57.401Z,11.60
2024-04-03T23:00:27.576Z,11.60
2024-04-03T23:02:54.347Z,11.60
2024-04-03T23:05:20.867Z,11.66
2024-04-03T23:07:47.394Z,11.70
2024-04-03T23:10:14.032Z,11.70
2024-04-03T23:12:40.603Z,11.70
2024-04-03T23:15:07.616Z,11.70
2024-04-03T23:17:36.383Z,11.70
2024-04-03T23:20:04.389Z,11.70
2024-04-03T23:22:30.949Z,11.78
2024-04-03T23:24:57.662Z,11.80
2024-04-03T23:27:24.105Z,11.80
2024-04-03T23:29:50.612Z,11.80
2024-04-03T23:32:23.340Z,11.80
2024-04-03T23:34:50.103Z,11.80
2024-04-03T23:37:17.734Z,11.80
2024-04-03T23:39:44.291Z,11.80
2024-04-03T23:42:10.794Z,11.84
2024-04-03T23:44:37.292Z,11.88
2024-04-03T23:47:04.442Z,11.90
2024-04-03T23:49:30.982Z,11.90
2024-04-03T23:51:57.513Z,11.90
2024-04-03T23:54:24.075Z,11.90
2024-04-03T23:56:50.547Z,12.00
2024-04-03T23:59:17.046Z,12.00
